Time;durP1;ratioP1;P1;durP2;ratioP2;P2;SDS_P1;SDS_P2;PMS_P1;PMS_P2;Temp;Humidity;BMP_temperature;BMP_pressure;BME280_temperature;BME280_humidity;BME280_pressure;Samples;Min_cycle;Max_cycle;Signal;HPM_P1;HPM_P2
2022/07/04 00:02:24;;;;;;;0.80;0.20;;;22.90;61.40;;;;;;5055606;28;20511;-27
2022/07/04 00:04:50;;;;;;;0.50;0.20;;;22.90;61.40;;;;;;5047579;28;20068;-23
2022/07/04 00:07:16;;;;;;;0.93;0.47;;;22.90;61.70;;;;;;5045355;28;20037;-22
2022/07/04 00:09:41;;;;;;;0.98;0.30;;;22.90;61.60;;;;;;5064155;28;20052;-28
2022/07/04 00:12:07;;;;;;;0.38;0.38;;;23.00;61.50;;;;;;5046656;28;20566;-23
2022/07/04 00:14:33;;;;;;;0.40;0.20;;;23.00;61.10;;;;;;5061041;28;20067;-26
2022/07/04 00:16:58;;;;;;;0.20;0.20;;;23.00;61.10;;;;;;5043444;28;20068;-24
2022/07/04 00:19:24;;;;;;;0.43;0.20;;;23.00;61.20;;;;;;5064170;28;20135;-25
2022/07/04 00:21:49;;;;;;;0.43;0.25;;;23.00;61.20;;;;;;5046857;28;20044;-21
2022/07/04 00:24:15;;;;;;;0.52;0.30;;;23.00;61.50;;;;;;5060261;28;20494;-21
2022/07/04 00:26:40;;;;;;;1.08;0.30;;;23.00;61.30;;;;;;5044773;28;20043;-27
2022/07/04 00:29:06;;;;;;;0.20;0.20;;;22.90;62.20;;;;;;5049081;28;20048;-22
2022/07/04 00:31:32;;;;;;;0.30;0.17;;;22.90;61.70;;;;;;5035622;28;20087;-21
2022/07/04 00:33:57;;;;;;;1.38;0.20;;;22.80;61.60;;;;;;5039516;28;20064;-23
2022/07/04 00:36:23;;;;;;;0.30;0.30;;;22.80;61.70;;;;;;5036362;28;20413;-27
2022/07/04 00:38:48;;;;;;;0.22;0.20;;;22.80;61.80;;;;;;5039935;28;20041;-23
2022/07/04 00:41:14;;;;;;;0.20;0.20;;;22.80;61.80;;;;;;5051949;28;20028;-23
2022/07/04 00:43:40;;;;;;;0.85;0.30;;;22.90;61.30;;;;;;5052684;28;20593;-26
2022/07/04 00:46:05;;;;;;;0.50;0.30;;;22.80;61.70;;;;;;5058360;28;20028;-24
2022/07/04 00:48:32;;;;;;;1.73;0.35;;;22.80;61.60;;;;;;5056421;28;20162;-24
2022/07/04 00:50:57;;;;;;;1.00;0.40;;;22.80;61.80;;;;;;5044096;28;20070;-22
2022/07/04 00:53:23;;;;;;;1.17;0.30;;;22.80;61.70;;;;;;5061616;28;20501;-23
2022/07/04 00:55:50;;;;;;;0.50;0.15;;;22.80;61.70;;;;;;5052259;28;21646;-27
2022/07/04 00:58:15;;;;;;;0.75;0.22;;;22.80;61.80;;;;;;5055619;28;20045;-24
2022/07/04 01:00:41;;;;;;;0.25;0.20;;;22.80;61.80;;;;;;5045097;28;20059;-24
2022/07/04 01:03:07;;;;;;;0.60;0.20;;;22.90;61.50;;;;;;5062430;28;20079;-23
2022/07/04 01:05:33;;;;;;;0.45;0.25;;;22.90;61.40;;;;;;5058771;28;20060;-22
2022/07/04 01:07:58;;;;;;;0.22;0.20;;;22.90;61.30;;;;;;5063732;28;20052;-22
2022/07/04 01:10:24;;;;;;;1.50;0.25;;;22.90;61.50;;;;;;5055355;28;20651;-20
2022/07/04 01:12:50;;;;;;;0.20;0.20;;;22.90;61.50;;;;;;5063808;28;20041;-22
2022/07/04 01:15:15;;;;;;;0.47;0.28;;;22.90;61.10;;;;;;5059529;28;20033;-24
2022/07/04 01:17:41;;;;;;;1.95;0.30;;;23.00;61.30;;;;;;5041691;28;20182;-23
2022/07/04 01:20:13;;;;;;;0.30;0.20;;;23.00;61.10;;;;;;5052249;28;20048;-26
2022/07/04 01:22:39;;;;;;;0.30;0.30;;;23.00;61.10;;;;;;5056938;28;20509;-23
2022/07/04 01:25:05;;;;;;;0.60;0.30;;;23.00;61.00;;;;;;5034584;28;20080;-23
2022/07/04 01:27:30;;;;;;;0.45;0.25;;;22.90;61.20;;;;;;5059852;28;20078;-24
2022/07/04 01:29:56;;;;;;;0.35;0.20;;;22.90;61.10;;;;;;5050328;28;20036;-24
2022/07/04 01:32:21;;;;;;;0.63;0.30;;;23.00;61.10;;;;;;5056684;28;20181;-23
2022/07/04 01:34:47;;;;;;;0.65;0.47;;;23.00;60.90;;;;;;5033530;28;20045;-25
2022/07/04 01:37:13;;;;;;;0.38;0.20;;;23.00;60.90;;;;;;5037875;28;20099;-23
2022/07/04 01:39:38;;;;;;;0.10;0.10;;;23.00;61.10;;;;;;5059432;28;20074;-28
2022/07/04 01:42:04;;;;;;;0.70;0.25;;;23.00;61.00;;;;;;5048798;28;20047;-23
2022/07/04 01:44:30;;;;;;;0.40;0.20;;;22.90;61.20;;;;;;5053074;28;20126;-25
2022/07/04 01:46:55;;;;;;;0.30;0.20;;;22.90;61.20;;;;;;5036705;28;20072;-24
2022/07/04 01:49:21;;;;;;;0.70;0.40;;;22.90;61.10;;;;;;5057991;28;20049;-23
2022/07/04 01:51:48;;;;;;;0.10;0.10;;;22.90;61.10;;;;;;5048360;28;20510;-22
2022/07/04 01:54:13;;;;;;;0.32;0.20;;;23.00;61.10;;;;;;5054500;28;20045;-21
2022/07/04 01:56:42;;;;;;;0.20;0.20;;;22.90;61.10;;;;;;5049680;28;20539;-22
2022/07/04 01:59:08;;;;;;;0.30;0.30;;;22.90;61.10;;;;;;5059112;28;20044;-23
2022/07/04 02:01:34;;;;;;;0.80;0.40;;;22.90;61.00;;;;;;5041916;28;20049;-22
2022/07/04 02:04:01;;;;;;;0.55;0.20;;;22.90;61.10;;;;;;5040806;28;20047;-23
2022/07/04 02:06:27;;;;;;;0.52;0.22;;;22.90;61.10;;;;;;5036722;28;20087;-24
2022/07/04 02:14:21;;;;;;;0.20;0.10;;;22.90;61.40;;;;;;5055843;28;20060;-20
2022/07/04 02:16:47;;;;;;;0.93;0.30;;;22.90;61.30;;;;;;5052794;28;20037;-25
2022/07/04 02:19:12;;;;;;;0.20;0.20;;;22.90;61.20;;;;;;5060325;28;20574;-24
2022/07/04 02:21:38;;;;;;;0.28;0.25;;;22.90;61.30;;;;;;5053961;28;20052;-25
2022/07/04 02:24:04;;;;;;;0.45;0.32;;;22.90;61.10;;;;;;5064500;28;20131;-24
2022/07/04 02:26:29;;;;;;;1.15;0.10;;;22.90;61.10;;;;;;5064921;28;20508;-21
2022/07/04 02:28:55;;;;;;;0.50;0.40;;;22.90;61.30;;;;;;5060008;28;20055;-23
2022/07/04 02:31:21;;;;;;;0.20;0.17;;;22.90;61.00;;;;;;5054929;28;20408;-23
2022/07/04 02:33:46;;;;;;;1.55;0.13;;;22.90;61.00;;;;;;5057831;28;20071;-22
2022/07/04 02:36:12;;;;;;;0.20;0.15;;;22.90;61.10;;;;;;5061916;28;20094;-26
2022/07/04 02:38:37;;;;;;;0.10;0.10;;;22.90;61.10;;;;;;5050995;28;20044;-23
2022/07/04 02:41:03;;;;;;;0.20;0.10;;;22.80;61.10;;;;;;5052481;28;20049;-23
2022/07/04 02:43:28;;;;;;;0.63;0.20;;;22.90;61.20;;;;;;5051050;28;20401;-22
2022/07/04 02:45:54;;;;;;;0.20;0.17;;;22.80;61.10;;;;;;5059487;28;20132;-23
2022/07/04 02:48:19;;;;;;;0.28;0.17;;;22.80;61.30;;;;;;5047936;28;20033;-25
2022/07/04 02:50:45;;;;;;;0.38;0.20;;;22.80;61.20;;;;;;5037053;28;20100;-25
2022/07/04 02:53:11;;;;;;;0.30;0.20;;;22.90;61.10;;;;;;5054780;28;20547;-23
2022/07/04 02:55:36;;;;;;;0.30;0.10;;;22.80;61.20;;;;;;5053483;28;20048;-23
2022/07/04 02:58:02;;;;;;;1.08;0.20;;;22.90;61.20;;;;;;5055202;28;20040;-22
2022/07/04 03:00:27;;;;;;;1.20;0.57;;;22.80;61.10;;;;;;5048938;28;20060;-25
2022/07/04 03:02:56;;;;;;;0.43;0.20;;;22.90;61.10;;;;;;5055726;28;20053;-22
2022/07/04 03:05:22;;;;;;;0.32;0.30;;;22.90;61.00;;;;;;5053528;28;20041;-28
2022/07/04 03:07:47;;;;;;;0.30;0.17;;;22.80;61.10;;;;;;5058058;28;20052;-26
2022/07/04 03:10:13;;;;;;;0.10;0.10;;;22.80;61.10;;;;;;5052673;28;20095;-26
2022/07/04 03:12:38;;;;;;;0.40;0.30;;;22.80;61.10;;;;;;5041172;28;20045;-24
2022/07/04 03:15:04;;;;;;;0.20;0.20;;;22.80;61.10;;;;;;5034987;28;20498;-22
2022/07/04 03:17:30;;;;;;;0.52;0.20;;;22.80;61.20;;;;;;5063999;28;20062;-26
2022/07/04 03:19:56;;;;;;;0.85;0.20;;;22.80;61.20;;;;;;5059683;28;20048;-24
2022/07/04 03:22:22;;;;;;;0.43;0.30;;;22.80;61.10;;;;;;5060580;28;20166;-22
2022/07/04 03:24:48;;;;;;;2.63;0.45;;;22.80;61.20;;;;;;5052894;28;20131;-23
2022/07/04 03:27:13;;;;;;;0.20;0.15;;;22.80;61.10;;;;;;5049828;28;20424;-24
2022/07/04 03:29:39;;;;;;;0.55;0.50;;;22.80;61.20;;;;;;5039896;28;20060;-26
2022/07/04 03:32:05;;;;;;;0.20;0.20;;;22.80;61.10;;;;;;5036907;28;20037;-23
2022/07/04 03:34:31;;;;;;;2.50;0.30;;;22.80;61.20;;;;;;5037691;28;20079;-29
2022/07/04 03:36:56;;;;;;;0.32;0.32;;;22.80;61.00;;;;;;5046666;28;20069;-26
2022/07/04 03:39:22;;;;;;;0.17;0.17;;;22.80;60.90;;;;;;5057991;28;20639;-22
2022/07/04 03:41:48;;;;;;;0.10;0.10;;;22.80;61.00;;;;;;5053559;28;20098;-24
2022/07/04 03:44:13;;;;;;;1.10;0.20;;;22.80;61.00;;;;;;5066524;28;20105;-26
2022/07/04 03:46:39;;;;;;;0.57;0.30;;;22.80;61.00;;;;;;5059056;28;20036;-24
2022/07/04 03:49:05;;;;;;;0.20;0.20;;;22.80;61.00;;;;;;5059882;28;20407;-23
2022/07/04 03:51:30;;;;;;;0.40;0.30;;;22.80;61.10;;;;;;5055664;28;20071;-20
2022/07/04 03:53:56;;;;;;;0.32;0.20;;;22.80;60.90;;;;;;5053104;28;20075;-26
2022/07/04 03:56:22;;;;;;;0.40;0.20;;;22.80;60.90;;;;;;5045784;28;20083;-23
2022/07/04 03:58:50;;;;;;;0.17;0.17;;;22.80;60.90;;;;;;5058336;28;20052;-22
2022/07/04 04:01:17;;;;;;;0.30;0.30;;;22.80;61.00;;;;;;5055906;28;20037;-22
2022/07/04 04:06:26;;;;;;;0.30;0.30;;;22.80;60.90;;;;;;5050894;28;20044;-21
2022/07/04 04:08:52;;;;;;;0.10;0.10;;;22.80;60.90;;;;;;5060889;28;20044;-25
2022/07/04 04:11:17;;;;;;;0.20;0.10;;;22.80;61.00;;;;;;5056825;28;20036;-25
2022/07/04 04:13:43;;;;;;;0.20;0.20;;;22.80;61.00;;;;;;5059398;28;20071;-24
2022/07/04 04:16:09;;;;;;;1.45;0.20;;;22.80;60.90;;;;;;5054591;28;20515;-24
2022/07/04 04:18:34;;;;;;;0.45;0.10;;;22.80;61.00;;;;;;5045830;28;20044;-23
2022/07/04 04:21:00;;;;;;;1.02;0.20;;;22.80;61.00;;;;;;5048958;28;20596;-24
2022/07/04 04:23:25;;;;;;;1.05;0.17;;;22.80;61.00;;;;;;5063072;28;20049;-26
2022/07/04 04:25:51;;;;;;;0.88;0.20;;;22.70;61.10;;;;;;5046108;28;20048;-24
2022/07/04 04:28:17;;;;;;;0.17;0.13;;;22.70;61.40;;;;;;5042426;28;20033;-22
2022/07/04 04:30:42;;;;;;;0.70;0.28;;;22.70;61.40;;;;;;5033504;28;20146;-26
2022/07/04 04:33:08;;;;;;;0.43;0.22;;;22.70;61.30;;;;;;5047419;28;20041;-23
2022/07/04 04:35:33;;;;;;;0.30;0.30;;;22.70;61.20;;;;;;5041989;28;20057;-20
2022/07/04 04:37:59;;;;;;;0.00;0.00;;;22.70;61.10;;;;;;5059674;28;20693;-23
2022/07/04 04:40:24;;;;;;;0.35;0.10;;;22.80;61.10;;;;;;5042170;28;20048;-25
2022/07/04 04:42:50;;;;;;;0.10;0.10;;;22.80;61.10;;;;;;5058047;28;20048;-24
2022/07/04 04:45:15;;;;;;;0.13;0.10;;;22.80;61.00;;;;;;5049527;28;20052;-24
2022/07/04 04:47:43;;;;;;;0.52;0.20;;;22.70;61.20;;;;;;5057356;28;20040;-23
2022/07/04 04:50:11;;;;;;;0.20;0.10;;;22.70;61.20;;;;;;5063586;28;20071;-25
2022/07/04 04:52:37;;;;;;;2.28;0.50;;;22.60;61.30;;;;;;5047820;28;20057;-22
2022/07/04 04:55:03;;;;;;;0.38;0.20;;;22.60;61.20;;;;;;5057238;28;20985;-22
2022/07/04 04:57:29;;;;;;;0.22;0.10;;;22.50;60.90;;;;;;5062267;28;20044;-25
2022/07/04 04:59:54;;;;;;;0.15;0.10;;;22.50;60.70;;;;;;5057725;28;20791;-25
2022/07/04 05:02:20;;;;;;;0.50;0.20;;;22.40;59.90;;;;;;5061675;28;20044;-24
2022/07/04 05:04:45;;;;;;;0.80;0.20;;;22.40;59.50;;;;;;5059433;28;20048;-26
2022/07/04 05:07:11;;;;;;;0.40;0.20;;;22.40;59.50;;;;;;5059331;28;20532;-26
2022/07/04 05:09:37;;;;;;;0.90;0.20;;;22.40;58.90;;;;;;5056950;28;20245;-23
2022/07/04 05:12:02;;;;;;;0.90;0.10;;;22.40;58.80;;;;;;5057559;28;20041;-23
2022/07/04 05:14:28;;;;;;;0.55;0.30;;;22.40;58.80;;;;;;5045971;28;20150;-24
2022/07/04 05:16:54;;;;;;;0.22;0.13;;;22.40;58.60;;;;;;5033682;28;20042;-22
2022/07/04 05:19:19;;;;;;;0.22;0.15;;;22.30;58.30;;;;;;5054206;28;20459;-23
2022/07/04 05:21:45;;;;;;;0.30;0.20;;;22.30;58.40;;;;;;5057584;28;20107;-23
2022/07/04 05:24:11;;;;;;;0.28;0.13;;;22.30;58.60;;;;;;5058597;28;20052;-22
2022/07/04 05:26:37;;;;;;;0.55;0.10;;;22.30;58.10;;;;;;5043343;28;20041;-25
2022/07/04 05:29:02;;;;;;;0.70;0.40;;;22.30;58.30;;;;;;5061068;28;20036;-25
2022/07/04 05:31:28;;;;;;;0.43;0.15;;;22.30;58.20;;;;;;5061797;28;20044;-24
2022/07/04 05:33:54;;;;;;;1.13;0.43;;;22.20;58.30;;;;;;5060460;28;20049;-26
2022/07/04 05:36:20;;;;;;;0.30;0.28;;;22.20;58.30;;;;;;5062608;28;20047;-21
2022/07/04 05:38:45;;;;;;;0.55;0.10;;;22.20;57.60;;;;;;5062514;28;20543;-21
2022/07/04 05:41:11;;;;;;;0.20;0.20;;;22.30;57.50;;;;;;5061915;28;20048;-26
2022/07/04 05:43:37;;;;;;;1.67;0.28;;;22.30;57.50;;;;;;5064061;28;20235;-22
2022/07/04 05:46:03;;;;;;;0.65;0.28;;;22.20;57.70;;;;;;5065100;28;20090;-25
2022/07/04 05:48:29;;;;;;;0.50;0.30;;;22.20;57.60;;;;;;5061509;28;20514;-24
2022/07/04 05:50:54;;;;;;;0.30;0.20;;;22.20;57.50;;;;;;5056849;28;20128;-22
2022/07/04 05:53:20;;;;;;;0.20;0.10;;;22.20;57.50;;;;;;5063737;28;20068;-28
2022/07/04 05:55:45;;;;;;;0.22;0.13;;;22.20;57.50;;;;;;5055132;28;20059;-22
2022/07/04 05:58:11;;;;;;;0.35;0.22;;;22.10;57.50;;;;;;5048385;28;20099;-23
2022/07/04 06:00:39;;;;;;;0.43;0.43;;;22.10;58.00;;;;;;5054352;28;20808;-25
2022/07/04 06:03:08;;;;;;;0.63;0.22;;;22.10;57.60;;;;;;5055311;28;20040;-23
2022/07/04 06:05:33;;;;;;;0.32;0.22;;;22.10;57.30;;;;;;5052441;28;20443;-20
2022/07/04 06:07:59;;;;;;;0.45;0.30;;;22.10;57.20;;;;;;5040787;28;20048;-22
2022/07/04 06:10:25;;;;;;;0.85;0.40;;;22.10;57.40;;;;;;4343258;28;10000773;-23
2022/07/04 06:12:50;;;;;;;0.10;0.10;;;22.10;57.50;;;;;;4696818;28;10000515;-27
2022/07/04 06:15:16;;;;;;;0.43;0.20;;;22.10;57.20;;;;;;5047621;28;20079;-22
2022/07/04 06:17:42;;;;;;;0.95;0.20;;;22.10;57.60;;;;;;5054870;28;20045;-22
2022/07/04 06:20:08;;;;;;;0.30;0.28;;;22.10;57.60;;;;;;5049167;28;20501;-24
2022/07/04 06:22:47;;;;;;;0.50;0.20;;;22.10;57.70;;;;;;5042092;28;20045;-21
2022/07/04 06:25:18;;;;;;;0.30;0.20;;;22.10;58.00;;;;;;5052142;28;20048;-23
2022/07/04 06:27:44;;;;;;;2.08;0.40;;;22.20;57.80;;;;;;5041918;28;20071;-25
2022/07/04 06:30:10;;;;;;;0.73;0.20;;;22.30;57.50;;;;;;5055734;28;20053;-21
2022/07/04 06:32:48;;;;;;;1.77;0.22;;;22.30;57.50;;;;;;5036083;28;20056;-21
2022/07/04 06:38:00;;;;;;;0.40;0.32;;;22.30;58.50;;;;;;5025100;28;20465;-27
2022/07/04 06:40:26;;;;;;;3.67;0.45;;;22.30;58.90;;;;;;5045588;28;20048;-24
2022/07/04 06:42:52;;;;;;;0.40;0.30;;;22.40;59.40;;;;;;5058028;28;20693;-27
2022/07/04 06:45:17;;;;;;;1.88;0.20;;;22.30;59.70;;;;;;5047041;28;20098;-25
2022/07/04 06:47:43;;;;;;;0.28;0.20;;;22.40;60.10;;;;;;5057142;28;20110;-26
2022/07/04 06:50:09;;;;;;;0.30;0.20;;;22.40;60.60;;;;;;5052952;28;20052;-25
2022/07/04 06:52:35;;;;;;;0.70;0.28;;;22.30;60.30;;;;;;5058743;28;20040;-28
2022/07/04 06:55:00;;;;;;;0.30;0.20;;;22.30;60.60;;;;;;5061086;28;20052;-27
2022/07/04 06:57:26;;;;;;;0.20;0.20;;;22.30;60.80;;;;;;5059466;28;20081;-23
2022/07/04 06:59:51;;;;;;;0.40;0.20;;;22.40;61.20;;;;;;5061278;28;20497;-23
2022/07/04 07:02:17;;;;;;;0.17;0.10;;;22.50;60.90;;;;;;5060195;28;20048;-22
2022/07/04 07:04:43;;;;;;;0.43;0.20;;;22.60;61.10;;;;;;5061215;28;20124;-24
2022/07/04 07:07:09;;;;;;;0.20;0.20;;;22.60;61.40;;;;;;5058339;28;20059;-22
2022/07/04 07:09:34;;;;;;;0.43;0.13;;;22.60;61.70;;;;;;5058654;28;20060;-25
2022/07/04 07:12:00;;;;;;;1.00;0.30;;;22.70;61.70;;;;;;5061216;28;20048;-26
2022/07/04 07:14:26;;;;;;;2.10;0.40;;;22.70;61.80;;;;;;5061300;28;20082;-25
2022/07/04 07:16:52;;;;;;;0.63;0.10;;;22.70;61.60;;;;;;5048718;28;20536;-22
2022/07/04 07:19:17;;;;;;;0.32;0.10;;;22.70;61.80;;;;;;5047285;28;20052;-27
2022/07/04 07:21:43;;;;;;;0.47;0.30;;;22.70;61.60;;;;;;5050470;28;20063;-20
2022/07/04 07:24:08;;;;;;;0.40;0.20;;;22.70;62.30;;;;;;5060447;28;20045;-25
2022/07/04 07:26:34;;;;;;;1.60;0.20;;;22.80;61.30;;;;;;5060788;28;20135;-24
2022/07/04 07:28:59;;;;;;;1.92;0.60;;;22.80;61.50;;;;;;5051114;28;20044;-23
2022/07/04 07:31:25;;;;;;;0.15;0.15;;;22.80;61.20;;;;;;5060729;28;20055;-27
2022/07/04 07:33:51;;;;;;;3.22;0.30;;;22.70;61.20;;;;;;5058754;28;20055;-22
2022/07/04 07:36:16;;;;;;;0.40;0.22;;;22.70;61.20;;;;;;5062768;28;20116;-29
2022/07/04 07:38:42;;;;;;;0.65;0.20;;;22.80;61.50;;;;;;5052670;28;20070;-23
2022/07/04 07:41:11;;;;;;;0.80;0.30;;;22.80;61.30;;;;;;5061701;28;20040;-25
2022/07/04 07:43:37;;;;;;;0.35;0.35;;;22.90;61.10;;;;;;5059824;28;20051;-25
2022/07/04 07:46:05;;;;;;;1.17;0.22;;;22.90;61.70;;;;;;5059409;28;20048;-25
2022/07/04 07:48:30;;;;;;;0.50;0.47;;;23.00;60.60;;;;;;5058032;28;20082;-25
2022/07/04 07:50:56;;;;;;;1.75;0.30;;;23.00;60.30;;;;;;5057140;28;20049;-26
2022/07/04 07:53:21;;;;;;;0.82;0.25;;;23.00;59.50;;;;;;5055573;28;20650;-23
2022/07/04 07:55:47;;;;;;;0.60;0.20;;;23.00;59.80;;;;;;5060074;28;20048;-22
2022/07/04 07:58:13;;;;;;;0.40;0.40;;;23.00;60.10;;;;;;5055748;28;20045;-23
2022/07/04 08:00:38;;;;;;;0.50;0.30;;;23.00;59.00;;;;;;5056576;28;20045;-26
2022/07/04 08:05:48;;;;;;;1.70;0.20;;;23.00;59.90;;;;;;5062335;28;20052;-23
2022/07/04 08:08:13;;;;;;;0.30;0.20;;;23.00;60.00;;;;;;4698468;28;9999883;-23
2022/07/04 08:10:39;;;;;;;0.50;0.30;;;23.10;59.70;;;;;;5042393;28;20463;-26
2022/07/04 08:13:05;;;;;;;1.45;0.40;;;23.00;59.60;;;;;;5037018;28;20049;-21
2022/07/04 08:15:31;;;;;;;0.52;0.20;;;23.00;59.50;;;;;;5031545;28;20733;-25
2022/07/04 08:17:56;;;;;;;0.57;0.20;;;23.10;59.40;;;;;;5047835;28;20451;-23
2022/07/04 08:20:22;;;;;;;1.95;0.30;;;23.10;59.40;;;;;;5060275;28;20087;-22
2022/07/04 08:22:47;;;;;;;1.08;0.32;;;23.20;59.20;;;;;;5055806;28;20493;-25
2022/07/04 08:25:14;;;;;;;1.55;0.60;;;23.20;59.10;;;;;;5061948;28;20048;-24
2022/07/04 08:27:40;;;;;;;0.30;0.25;;;23.20;59.10;;;;;;5056364;28;20494;-28
2022/07/04 08:30:06;;;;;;;0.70;0.20;;;23.20;59.00;;;;;;5057306;28;20045;-23
2022/07/04 08:32:32;;;;;;;0.50;0.30;;;23.20;59.00;;;;;;5060489;28;20528;-22
2022/07/04 08:34:57;;;;;;;1.75;0.20;;;23.20;59.00;;;;;;5053212;28;20044;-24
2022/07/04 08:37:23;;;;;;;0.35;0.20;;;23.20;59.00;;;;;;5041879;28;20050;-24
2022/07/04 08:39:49;;;;;;;0.45;0.10;;;23.20;59.20;;;;;;5044362;28;20182;-23
2022/07/04 08:42:18;;;;;;;0.13;0.10;;;23.20;59.00;;;;;;5052262;28;20506;-24
2022/07/04 08:44:52;;;;;;;2.90;0.20;;;23.20;59.00;;;;;;5060360;28;20193;-26
2022/07/04 08:47:24;;;;;;;0.43;0.28;;;23.10;59.10;;;;;;5058407;28;20048;-24
2022/07/04 08:49:55;;;;;;;1.13;0.30;;;23.10;59.00;;;;;;5060211;28;20178;-22
2022/07/04 08:52:36;;;;;;;0.35;0.20;;;23.10;59.00;;;;;;5055232;28;20054;-23
2022/07/04 09:00:31;;;;;;;;;;;23.30;58.60;;;;;;5052890;28;21273;-24
2022/07/04 09:02:57;;;;;;;0.50;0.28;;;23.30;58.50;;;;;;5056818;28;19925;-23
2022/07/04 09:05:23;;;;;;;1.00;0.25;;;23.30;58.00;;;;;;5047847;28;20410;-25
2022/07/04 09:07:49;;;;;;;0.38;0.20;;;23.40;58.20;;;;;;5060157;28;20040;-21
2022/07/04 09:10:14;;;;;;;0.45;0.45;;;23.30;58.30;;;;;;5066824;28;20052;-24
2022/07/04 09:12:40;;;;;;;0.63;0.30;;;23.30;58.40;;;;;;5048728;28;20505;-26
2022/07/04 09:15:06;;;;;;;0.30;0.20;;;23.30;58.40;;;;;;5047194;28;20607;-23
2022/07/04 09:17:33;;;;;;;5.25;0.75;;;23.30;58.30;;;;;;5048888;28;20049;-23
2022/07/04 09:20:18;;;;;;;2.92;0.20;;;23.30;57.80;;;;;;5051027;28;20032;-23
2022/07/04 09:22:44;;;;;;;2.10;0.30;;;23.30;57.80;;;;;;5063370;28;20036;-29
2022/07/04 09:25:12;;;;;;;1.55;0.20;;;23.30;57.50;;;;;;5062287;28;20067;-24
2022/07/04 09:27:44;;;;;;;0.40;0.30;;;23.30;57.30;;;;;;5049687;28;20044;-23
2022/07/04 09:30:10;;;;;;;0.82;0.40;;;23.30;57.50;;;;;;5056471;28;20157;-28
2022/07/04 09:32:37;;;;;;;0.43;0.28;;;23.30;57.50;;;;;;5060258;28;20045;-23
2022/07/04 09:35:04;;;;;;;0.65;0.40;;;23.30;57.40;;;;;;5062554;28;20041;-26
2022/07/04 09:37:41;;;;;;;0.20;0.10;;;23.40;57.50;;;;;;5061157;28;20052;-25
2022/07/04 09:40:10;;;;;;;1.83;0.40;;;23.40;57.60;;;;;;5065733;28;20140;-22
2022/07/04 09:42:41;;;;;;;0.98;0.22;;;23.40;57.20;;;;;;5061685;28;20040;-24
2022/07/04 09:45:09;;;;;;;0.25;0.25;;;23.50;56.90;;;;;;5044373;28;20147;-23
2022/07/04 09:47:36;;;;;;;0.60;0.30;;;23.60;56.80;;;;;;5061119;28;20413;-26
2022/07/04 09:50:05;;;;;;;0.57;0.20;;;23.50;56.80;;;;;;5064983;28;20044;-26
2022/07/04 09:52:32;;;;;;;0.77;0.20;;;23.50;57.50;;;;;;5062927;28;20048;-24
2022/07/04 09:55:02;;;;;;;1.05;0.30;;;23.40;57.50;;;;;;5063215;28;20102;-27
2022/07/04 09:57:29;;;;;;;1.67;0.20;;;23.50;57.00;;;;;;5061333;28;20052;-28
2022/07/04 09:59:54;;;;;;;1.65;0.20;;;23.50;56.60;;;;;;4360693;28;10000703;-28
2022/07/04 10:02:20;;;;;;;1.05;0.30;;;23.50;57.70;;;;;;5059743;28;20124;-27
2022/07/04 10:04:47;;;;;;;0.25;0.20;;;23.40;56.70;;;;;;5054167;28;21606;-25
2022/07/04 10:07:31;;;;;;;0.75;0.20;;;23.40;56.60;;;;;;5046347;28;20082;-23
2022/07/04 10:09:57;;;;;;;0.47;0.22;;;23.50;56.10;;;;;;5055940;28;20052;-25
2022/07/04 10:12:27;;;;;;;0.20;0.20;;;23.50;56.20;;;;;;5051273;28;20408;-26
2022/07/04 10:14:54;;;;;;;0.57;0.10;;;23.60;56.70;;;;;;5045233;28;20080;-26
2022/07/04 10:17:19;;;;;;;0.22;0.20;;;23.50;55.80;;;;;;5030898;28;20628;-26
2022/07/04 10:19:45;;;;;;;0.90;0.20;;;23.50;56.70;;;;;;5035568;28;20048;-23
2022/07/04 10:22:12;;;;;;;2.88;0.60;;;23.60;56.30;;;;;;5051234;28;20743;-25
2022/07/04 10:24:38;;;;;;;0.30;0.10;;;23.60;56.30;;;;;;5062810;28;20472;-28
2022/07/04 10:27:03;;;;;;;0.20;0.15;;;23.60;56.70;;;;;;5059123;28;20037;-28
2022/07/04 10:29:29;;;;;;;1.88;0.20;;;23.60;56.30;;;;;;5055250;28;20570;-29
2022/07/04 10:31:55;;;;;;;0.13;0.10;;;23.70;57.10;;;;;;5054242;28;20497;-26
2022/07/04 10:34:20;;;;;;;0.20;0.20;;;23.70;57.10;;;;;;5059711;28;20119;-24
2022/07/04 10:36:51;;;;;;;0.25;0.20;;;23.70;56.70;;;;;;4696681;28;10000183;-22
2022/07/04 10:39:22;;;;;;;0.55;0.45;;;23.70;57.30;;;;;;5029033;28;20451;-24
2022/07/04 10:42:01;;;;;;;0.20;0.20;;;23.70;57.00;;;;;;5033704;28;20101;-26
2022/07/04 10:44:34;;;;;;;0.13;0.10;;;23.70;57.00;;;;;;5036496;28;20086;-27
2022/07/04 10:47:00;;;;;;;0.40;0.20;;;23.70;56.90;;;;;;5034101;28;20083;-25
2022/07/04 10:49:31;;;;;;;0.20;0.20;;;23.60;56.90;;;;;;5062940;28;20044;-24
2022/07/04 10:52:13;;;;;;;0.38;0.30;;;23.70;57.10;;;;;;5054414;28;20052;-26
2022/07/04 10:54:42;;;;;;;0.38;0.20;;;23.80;57.40;;;;;;5054165;28;20701;-25
2022/07/04 10:57:17;;;;;;;0.20;0.10;;;23.80;57.30;;;;;;5046790;28;20105;-23
2022/07/04 10:59:52;;;;;;;0.30;0.30;;;23.90;57.50;;;;;;5051325;28;20390;-26
2022/07/04 11:02:18;;;;;;;0.30;0.15;;;23.90;57.80;;;;;;5061824;28;20120;-26
2022/07/04 11:05:05;;;;;;;1.23;0.50;;;23.80;57.50;;;;;;5053668;28;20175;-24
2022/07/04 11:07:36;;;;;;;0.28;0.10;;;23.90;57.70;;;;;;5056437;28;20713;-26
2022/07/04 11:10:16;;;;;;;0.13;0.13;;;23.80;58.40;;;;;;5059129;28;20103;-29
2022/07/04 11:12:54;;;;;;;0.40;0.20;;;23.90;58.30;;;;;;5042149;28;20068;-27
2022/07/04 11:15:28;;;;;;;0.63;0.20;;;23.90;58.70;;;;;;5057477;28;20064;-25
2022/07/04 11:17:58;;;;;;;0.43;0.20;;;23.90;58.80;;;;;;4710042;28;9999948;-25
2022/07/04 11:20:24;;;;;;;1.63;0.20;;;23.90;58.80;;;;;;5057995;28;20049;-25
2022/07/04 11:22:50;;;;;;;0.25;0.25;;;23.90;59.10;;;;;;5052860;28;20378;-23
2022/07/04 11:25:15;;;;;;;0.30;0.30;;;23.90;59.40;;;;;;5051435;28;20051;-28
2022/07/04 11:27:41;;;;;;;0.40;0.20;;;23.90;59.30;;;;;;5039119;28;20119;-29
2022/07/04 11:30:08;;;;;;;0.13;0.13;;;23.90;59.20;;;;;;5048438;28;20049;-27
2022/07/04 11:32:34;;;;;;;0.32;0.20;;;23.90;60.00;;;;;;5050804;28;20580;-23
2022/07/04 11:35:00;;;;;;;0.20;0.10;;;23.90;59.40;;;;;;5055094;28;20060;-23
2022/07/04 11:37:26;;;;;;;0.40;0.38;;;23.90;59.30;;;;;;5045829;28;20052;-26
2022/07/04 11:39:52;;;;;;;0.98;0.10;;;23.90;59.30;;;;;;5044901;28;20041;-25
2022/07/04 11:45:02;;;;;;;0.35;0.35;;;23.90;59.40;;;;;;4700621;28;10000922;-27
2022/07/04 11:47:41;;;;;;;2.45;0.20;;;23.90;59.60;;;;;;5042999;28;20135;-25
2022/07/04 11:50:11;;;;;;;0.10;0.10;;;23.90;59.50;;;;;;5049110;28;20045;-27
2022/07/04 11:52:36;;;;;;;0.20;0.20;;;23.90;59.50;;;;;;5055268;28;20074;-30
2022/07/04 11:55:03;;;;;;;0.30;0.20;;;24.00;59.50;;;;;;5021829;28;20057;-25
2022/07/04 11:57:30;;;;;;;0.28;0.28;;;24.00;59.70;;;;;;5036594;28;20187;-24
2022/07/04 11:59:59;;;;;;;1.65;0.43;;;24.00;59.50;;;;;;5038480;28;20044;-28
2022/07/04 12:02:26;;;;;;;0.73;0.33;;;24.00;59.60;;;;;;4688533;28;10000431;-23
2022/07/04 12:04:52;;;;;;;0.52;0.35;;;24.00;59.90;;;;;;5055274;28;20074;-25
2022/07/04 12:07:19;;;;;;;1.25;0.40;;;24.00;59.50;;;;;;5055687;28;20072;-24
2022/07/04 12:09:45;;;;;;;0.85;0.50;;;24.00;59.70;;;;;;5044047;28;20037;-22
2022/07/04 12:12:11;;;;;;;0.95;0.55;;;24.00;59.60;;;;;;5042047;28;20052;-21
2022/07/04 12:14:38;;;;;;;3.53;0.63;;;24.00;59.80;;;;;;5034476;28;20114;-23
2022/07/04 12:17:15;;;;;;;1.70;0.40;;;24.00;59.60;;;;;;5047486;28;20509;-23
2022/07/04 12:19:54;;;;;;;0.80;0.45;;;24.00;60.30;;;;;;5044000;28;20819;-25
2022/07/04 12:22:26;;;;;;;1.45;0.70;;;24.00;59.60;;;;;;5050705;28;20112;-23
2022/07/04 12:24:52;;;;;;;2.85;0.73;;;24.00;59.60;;;;;;5040048;28;20045;-23
2022/07/04 12:27:21;;;;;;;0.63;0.40;;;24.00;59.60;;;;;;5053186;28;20043;-25
2022/07/04 12:29:48;;;;;;;0.90;0.60;;;24.00;59.60;;;;;;5051463;28;20041;-23
2022/07/04 12:32:14;;;;;;;0.80;0.50;;;24.00;59.70;;;;;;5051864;28;20052;-24
2022/07/04 12:34:39;;;;;;;0.95;0.57;;;24.00;59.50;;;;;;5050043;28;20049;-23
2022/07/04 12:37:08;;;;;;;1.50;0.65;;;24.00;59.50;;;;;;5047176;28;20111;-21
2022/07/04 12:39:35;;;;;;;0.80;0.52;;;24.00;59.50;;;;;;5050414;28;20123;-23
2022/07/04 12:42:07;;;;;;;0.80;0.60;;;24.00;59.40;;;;;;5048328;28;20813;-26
2022/07/04 12:44:33;;;;;;;1.63;0.55;;;24.00;59.40;;;;;;5050210;28;20052;-22
2022/07/04 12:46:59;;;;;;;1.05;0.40;;;24.00;59.40;;;;;;5055820;28;20041;-21
2022/07/04 12:49:24;;;;;;;2.30;0.40;;;24.10;59.30;;;;;;5058008;28;20125;-22
2022/07/04 12:51:50;;;;;;;0.57;0.30;;;24.00;59.30;;;;;;5049511;28;20040;-22
2022/07/04 12:54:15;;;;;;;0.85;0.68;;;24.10;59.50;;;;;;5032989;28;20120;-21
2022/07/04 12:56:42;;;;;;;1.20;0.52;;;24.10;59.20;;;;;;5032788;28;20045;-23
2022/07/04 12:59:09;;;;;;;0.77;0.50;;;24.10;59.30;;;;;;5044924;28;20144;-22
2022/07/04 13:01:35;;;;;;;1.17;0.50;;;24.10;59.10;;;;;;5043078;28;20056;-25
2022/07/04 13:04:01;;;;;;;1.75;0.40;;;24.10;59.20;;;;;;5053014;28;20048;-21
2022/07/04 13:06:27;;;;;;;0.77;0.77;;;24.10;59.90;;;;;;5050145;28;20090;-22